Time;durP1;ratioP1;P1;durP2;ratioP2;P2;SDS_P1;SDS_P2;PMS_P1;PMS_P2;Temp;Humidity;BMP_temperature;BMP_pressure;BME280_temperature;BME280_humidity;BME280_pressure;Samples;Min_cycle;Max_cycle;Signal;HPM_P1;HPM_P2
2023/10/19 00:00:36;;;;;;;9.43;5.60;;;;;;;8.33;100.00;99436.72;5062658;28;20032;-74
2023/10/19 00:03:06;;;;;;;8.27;4.82;;;;;;;8.38;100.00;99424.56;5057217;28;20051;-74
2023/10/19 00:05:32;;;;;;;9.35;4.70;;;;;;;8.25;100.00;99382.59;5048722;28;20036;-74
2023/10/19 00:10:39;;;;;;;10.20;5.82;;;;;;;8.33;100.00;99416.25;5030018;28;20055;-74
2023/10/19 00:13:08;;;;;;;9.50;5.22;;;;;;;8.29;100.00;99382.25;5050121;28;20135;-74
2023/10/19 00:15:51;;;;;;;14.07;6.30;;;;;;;8.29;100.00;99345.88;5071889;28;20028;-74
2023/10/19 00:21:50;;;;;;;12.82;6.88;;;;;;;8.27;100.00;99347.88;5052204;28;20029;-74
2023/10/19 00:23:39;;;;;;;11.77;6.35;;;;;;;8.23;100.00;99312.00;5051812;28;20036;-74
2023/10/19 00:26:08;;;;;;;13.70;5.03;;;;;;;8.17;100.00;99302.09;5071767;28;20443;-74
2023/10/19 00:28:35;;;;;;;14.05;7.00;;;;;;;8.34;100.00;99375.38;5072086;28;20044;-74
2023/10/19 00:31:07;;;;;;;11.18;5.78;;;;;;;8.29;100.00;99343.19;5072047;28;20511;-74
2023/10/19 00:33:33;;;;;;;12.07;6.95;;;;;;;8.24;100.00;99319.81;5071688;28;20039;-74
2023/10/19 00:36:06;;;;;;;12.73;6.87;;;;;;;8.28;100.00;99303.50;5048964;28;20028;-74
2023/10/19 00:41:06;;;;;;;17.20;7.90;;;;;;;8.35;100.00;99309.72;5034776;28;20540;-74
2023/10/19 00:43:45;;;;;;;12.63;6.75;;;;;;;8.39;100.00;99271.94;5071892;28;20035;-74
2023/10/19 00:48:45;;;;;;;13.13;6.55;;;;;;;8.29;100.00;99254.59;5017974;28;20028;-74
2023/10/19 00:54:08;;;;;;;15.68;6.85;;;;;;;8.31;100.00;99234.81;5051838;28;20040;-74
2023/10/19 00:56:34;;;;;;;9.02;5.50;;;;;;;8.25;100.00;99240.88;5071228;28;20029;-74
2023/10/19 00:59:19;;;;;;;13.90;5.93;;;;;;;8.38;100.00;99288.94;5071374;28;20481;-74
2023/10/19 01:01:47;;;;;;;11.00;5.22;;;;;;;8.32;100.00;99222.34;5057934;28;20034;-74
2023/10/19 01:04:20;;;;;;;11.07;5.75;;;;;;;8.28;100.00;99221.88;5083039;28;20090;-74
2023/10/19 01:07:00;;;;;;;10.13;5.25;;;;;;;8.37;100.00;99251.88;5032657;28;20053;-74
2023/10/19 01:09:27;;;;;;;9.77;5.45;;;;;;;8.28;100.00;99232.50;5046699;28;20123;-74
2023/10/19 01:11:53;;;;;;;10.40;5.78;;;;;;;8.36;100.00;99231.63;5027938;28;20028;-74
2023/10/19 01:14:23;;;;;;;10.73;5.60;;;;;;;8.20;100.00;99166.97;5071421;28;20199;-74
2023/10/19 01:16:56;;;;;;;10.75;6.13;;;;;;;8.34;100.00;99212.34;5054011;28;20094;-74
2023/10/19 01:19:27;;;;;;;10.93;5.40;;;;;;;8.31;100.00;99208.22;5030934;28;20029;-74
2023/10/19 01:21:58;;;;;;;11.20;5.82;;;;;;;8.29;100.00;99190.78;5046753;28;20064;-74
2023/10/19 01:24:42;;;;;;;15.32;5.60;;;;;;;8.45;100.00;99243.81;5001423;28;20027;-74
2023/10/19 01:27:10;;;;;;;12.73;6.38;;;;;;;8.27;100.00;99159.09;5043687;28;20040;-73
2023/10/19 01:29:38;;;;;;;9.80;5.47;;;;;;;8.36;100.00;99187.22;5062245;28;20052;-74
2023/10/19 01:32:11;;;;;;;12.07;6.28;;;;;;;8.40;100.00;99182.38;5091581;28;20100;-74
2023/10/19 01:34:38;;;;;;;14.90;7.05;;;;;;;8.29;100.00;99148.25;5071151;28;20116;-74
2023/10/19 01:37:04;;;;;;;11.23;6.97;;;;;;;8.38;100.00;99163.09;5070013;28;20115;-74
2023/10/19 01:39:31;;;;;;;12.77;6.97;;;;;;;8.45;100.00;99175.50;5066563;28;20052;-73
2023/10/19 01:41:57;;;;;;;14.75;7.53;;;;;;;8.35;100.00;99132.38;5013704;28;20079;-74
2023/10/19 01:44:25;;;;;;;15.20;7.30;;;;;;;8.34;100.00;99113.97;4960175;28;20019;-74
2023/10/19 01:46:50;;;;;;;13.05;6.60;;;;;;;8.47;100.00;99158.53;5056707;28;20090;-74
2023/10/19 01:49:26;;;;;;;18.10;8.53;;;;;;;8.42;100.00;99117.34;5070527;28;20024;-73
2023/10/19 01:51:53;;;;;;;23.33;9.20;;;;;;;8.47;100.00;99132.75;5018066;28;20290;-74
2023/10/19 01:54:22;;;;;;;13.52;7.05;;;;;;;8.35;100.00;99113.75;5084574;28;20016;-74
2023/10/19 01:56:57;;;;;;;15.30;8.38;;;;;;;8.43;100.00;99147.44;5045797;28;20036;-74
2023/10/19 01:59:27;;;;;;;17.73;8.45;;;;;;;8.41;100.00;99166.25;5070339;28;20110;-74
2023/10/19 02:01:55;;;;;;;14.43;8.18;;;;;;;8.52;100.00;99193.34;5070401;28;20500;-74
2023/10/19 02:04:21;;;;;;;14.30;7.95;;;;;;;8.39;100.00;99149.63;5071409;28;20031;-74
2023/10/19 02:06:48;;;;;;;17.33;7.75;;;;;;;8.48;100.00;99186.78;5043329;28;20034;-75
2023/10/19 02:09:22;;;;;;;15.57;7.78;;;;;;;8.50;100.00;99216.66;5048853;28;20056;-74
2023/10/19 02:11:55;;;;;;;24.98;9.02;;;;;;;8.35;100.00;99225.44;5025530;28;20043;-74
2023/10/19 02:14:20;;;;;;;19.02;7.72;;;;;;;8.30;100.00;99219.88;5053910;28;20111;-74
2023/10/19 02:16:52;;;;;;;23.47;10.10;;;;;;;8.41;100.00;99200.81;5044838;28;20170;-74
2023/10/19 02:19:20;;;;;;;17.02;7.97;;;;;;;8.38;100.00;99201.16;5069886;28;20044;-75
2023/10/19 02:21:48;;;;;;;14.70;8.43;;;;;;;8.41;100.00;99206.13;5069956;28;20017;-75
2023/10/19 02:24:14;;;;;;;19.42;8.32;;;;;;;8.43;100.00;99204.13;5069731;28;20085;-74
2023/10/19 02:26:41;;;;;;;14.55;7.53;;;;;;;8.47;100.00;99209.06;5070612;28;20409;-74
2023/10/19 02:29:09;;;;;;;13.82;7.65;;;;;;;8.39;100.00;99197.47;5069649;28;20506;-74
2023/10/19 02:31:39;;;;;;;16.15;9.05;;;;;;;8.48;100.00;99224.84;5043910;28;20016;-74
2023/10/19 02:34:10;;;;;;;19.27;8.18;;;;;;;8.43;100.00;99196.13;5035543;28;20045;-74
2023/10/19 02:36:37;;;;;;;16.27;8.57;;;;;;;8.40;100.00;99175.22;5060371;28;20070;-74
2023/10/19 02:39:08;;;;;;;17.60;8.07;;;;;;;8.42;100.00;99151.91;4990729;28;20033;-74
2023/10/19 02:41:46;;;;;;;16.20;8.73;;;;;;;8.54;100.00;99170.88;5022690;28;20035;-74
2023/10/19 02:46:52;;;;;;;20.40;9.23;;;;;;;8.58;100.00;99140.22;5070219;28;20033;-75
2023/10/19 02:49:22;;;;;;;15.77;9.13;;;;;;;8.54;100.00;99098.22;5027786;28;20036;-75
2023/10/19 02:51:50;;;;;;;15.07;8.05;;;;;;;8.56;100.00;99098.88;5070813;28;20025;-74
2023/10/19 02:54:24;;;;;;;15.45;9.18;;;;;;;8.45;100.00;99031.88;5069264;28;20408;-74
2023/10/19 02:56:52;;;;;;;15.32;8.32;;;;;;;8.58;100.00;99046.31;5026866;28;20089;-75
2023/10/19 02:59:22;;;;;;;22.73;10.40;;;;;;;8.54;100.00;99051.19;5015898;28;20027;-74
2023/10/19 03:04:38;;;;;;;19.73;8.63;;;;;;;8.46;100.00;99003.44;5046237;28;20485;-74
2023/10/19 03:07:04;;;;;;;21.83;9.32;;;;;;;8.48;100.00;98971.34;5068436;28;20043;-74
2023/10/19 03:09:31;;;;;;;18.60;8.90;;;;;;;8.57;100.00;99007.41;5069105;28;20538;-74
2023/10/19 03:12:03;;;;;;;16.92;9.05;;;;;;;8.62;100.00;99015.66;5046613;28;20041;-74
2023/10/19 03:14:30;;;;;;;22.65;8.88;;;;;;;8.61;100.00;99014.00;5014100;28;20021;-73
2023/10/19 03:16:57;;;;;;;;;;;;;;;8.62;100.00;98957.94;4987139;28;20522;-74
2023/10/19 03:19:24;;;;;;;18.73;8.98;;;;;;;8.51;100.00;98928.41;5067165;28;19912;-74
2023/10/19 03:21:50;;;;;;;17.52;8.35;;;;;;;8.60;100.00;98993.75;5047420;28;20124;-74
2023/10/19 03:27:01;;;;;;;17.63;8.82;;;;;;;8.56;100.00;98973.84;5068280;28;20051;-74
2023/10/19 03:29:38;;;;;;;16.33;9.07;;;;;;;8.48;100.00;98921.63;5032161;28;20044;-75
2023/10/19 03:32:04;;;;;;;14.73;8.55;;;;;;;8.60;100.00;98944.03;5017628;28;20042;-74
2023/10/19 03:34:32;;;;;;;13.60;7.90;;;;;;;8.62;100.00;98973.91;5069009;28;20085;-75
2023/10/19 03:37:05;;;;;;;15.90;8.50;;;;;;;8.62;100.00;98938.50;5068185;28;20036;-74
2023/10/19 03:39:34;;;;;;;15.18;8.63;;;;;;;8.58;100.00;98946.03;5026874;28;20024;-74
2023/10/19 03:42:00;;;;;;;20.00;8.93;;;;;;;8.63;100.00;98958.75;5069854;28;20588;-74
2023/10/19 03:44:26;;;;;;;;;;;;;;;8.62;100.00;98973.91;5072997;28;20493;-74
2023/10/19 03:46:57;;;;;;;18.83;9.82;;;;;;;8.58;100.00;98929.28;5053702;28;19921;-74
2023/10/19 03:49:26;;;;;;;17.30;8.13;;;;;;;8.66;100.00;98921.13;5060434;28;20050;-74
2023/10/19 03:51:58;;;;;;;11.77;7.70;;;;;;;8.62;100.00;98903.94;5073057;28;20029;-74
2023/10/19 03:54:25;;;;;;;14.85;8.10;;;;;;;8.58;100.00;98881.38;5033842;28;20403;-74
2023/10/19 03:56:52;;;;;;;14.98;9.48;;;;;;;8.68;100.00;98908.47;5058558;28;20036;-75
2023/10/19 03:59:17;;;;;;;15.07;7.90;;;;;;;8.72;100.00;98898.25;5037067;28;20035;-75
2023/10/19 04:01:44;;;;;;;17.65;7.95;;;;;;;8.77;100.00;98930.41;5046157;28;20468;-75
2023/10/19 04:04:10;;;;;;;14.55;7.85;;;;;;;8.68;100.00;98889.81;5072532;28;20047;-75
2023/10/19 04:06:36;;;;;;;16.95;8.02;;;;;;;8.65;100.00;98875.09;5072323;28;20016;-75
2023/10/19 04:09:04;;;;;;;16.15;8.45;;;;;;;8.55;100.00;98845.38;5072316;28;20408;-73
2023/10/19 04:11:32;;;;;;;14.85;8.32;;;;;;;8.62;100.00;98882.66;5073746;28;20029;-75
2023/10/19 04:14:03;;;;;;;16.63;9.65;;;;;;;8.68;100.00;98902.31;5073707;28;20027;-74
2023/10/19 04:16:29;;;;;;;16.42;7.63;;;;;;;8.61;100.00;98878.34;5015421;28;20040;-73
2023/10/19 04:18:54;;;;;;;18.58;9.50;;;;;;;8.75;100.00;98930.59;5014906;28;20053;-73
2023/10/19 04:21:20;;;;;;;12.97;8.23;;;;;;;8.74;100.00;98910.34;5065913;28;20453;-75
2023/10/19 04:23:46;;;;;;;29.10;8.73;;;;;;;8.71;100.00;98947.16;5071853;28;20037;-75
2023/10/19 04:26:13;;;;;;;20.65;10.68;;;;;;;8.71;100.00;98931.19;5044358;28;20041;-74
2023/10/19 04:28:59;;;;;;;14.57;7.82;;;;;;;8.66;100.00;98934.44;5071669;28;20074;-74
2023/10/19 04:31:25;;;;;;;13.75;7.85;;;;;;;8.64;100.00;98934.63;5071771;28;20033;-74
2023/10/19 04:33:50;;;;;;;14.82;9.02;;;;;;;8.62;100.00;98893.28;5071886;28;20086;-75
2023/10/19 04:36:16;;;;;;;19.35;9.15;;;;;;;8.63;100.00;98895.72;5028149;28;20055;-75
2023/10/19 04:38:43;;;;;;;12.77;8.10;;;;;;;8.58;100.00;98862.78;5071868;28;20027;-75
2023/10/19 04:41:12;;;;;;;15.75;7.85;;;;;;;8.72;100.00;98909.72;5071686;28;20040;-73
2023/10/19 04:43:39;;;;;;;19.85;9.93;;;;;;;8.62;100.00;98898.59;5071716;28;20032;-75
2023/10/19 04:46:13;;;;;;;15.65;7.38;;;;;;;8.72;100.00;98912.38;5043601;28;20070;-74
2023/10/19 04:48:40;;;;;;;15.13;8.38;;;;;;;8.75;100.00;98898.66;5071589;28;20426;-73
2023/10/19 04:51:06;;;;;;;18.10;7.93;;;;;;;8.64;100.00;98876.13;5071700;28;20100;-74
2023/10/19 04:53:32;;;;;;;13.70;7.38;;;;;;;8.60;100.00;98858.09;5071234;28;20413;-74
2023/10/19 04:56:00;;;;;;;17.40;8.68;;;;;;;8.57;100.00;98823.88;5049564;28;20019;-74
2023/10/19 04:58:27;;;;;;;16.27;7.82;;;;;;;8.64;100.00;98901.91;5052240;28;20032;-74
2023/10/19 05:00:53;;;;;;;15.57;8.65;;;;;;;8.68;100.00;98919.09;5030631;28;20017;-74
2023/10/19 05:03:18;;;;;;;17.10;7.90;;;;;;;8.70;100.00;98949.00;5071408;28;20040;-74
2023/10/19 05:05:47;;;;;;;13.85;8.55;;;;;;;8.58;100.00;98898.16;5057842;28;20056;-74
2023/10/19 05:08:12;;;;;;;15.65;8.70;;;;;;;8.65;100.00;98930.13;5006660;28;20052;-74
2023/10/19 05:10:38;;;;;;;15.77;8.38;;;;;;;8.65;100.00;98930.13;5034852;28;20489;-74
2023/10/19 05:13:04;;;;;;;21.33;8.63;;;;;;;8.53;100.00;98857.22;5009800;28;20021;-74
2023/10/19 05:15:29;;;;;;;18.35;7.75;;;;;;;8.57;100.00;98843.34;5037838;28;20137;-75
2023/10/19 05:17:56;;;;;;;17.88;8.52;;;;;;;8.68;100.00;98926.25;5080562;28;20555;-74
2023/10/19 05:20:21;;;;;;;16.77;7.32;;;;;;;8.69;100.00;98909.31;5071043;28;20033;-73
2023/10/19 05:22:47;;;;;;;15.50;7.27;;;;;;;8.66;100.00;98868.75;5071159;28;20055;-74
2023/10/19 05:25:12;;;;;;;16.05;7.80;;;;;;;8.56;100.00;98808.94;5054322;28;20416;-74
2023/10/19 05:27:39;;;;;;;15.30;7.97;;;;;;;8.71;100.00;98844.22;5005448;28;20039;-74
2023/10/19 05:30:05;;;;;;;16.90;8.48;;;;;;;8.77;100.00;98890.50;4980267;28;20084;-74
2023/10/19 05:32:31;;;;;;;16.65;7.57;;;;;;;8.77;100.00;98874.53;5031441;28;20645;-74
2023/10/19 05:34:57;;;;;;;17.90;7.90;;;;;;;8.65;100.00;98843.16;5071070;28;20043;-74
2023/10/19 05:37:22;;;;;;;14.33;7.73;;;;;;;8.77;100.00;98816.81;5070065;28;20024;-75
2023/10/19 05:39:51;;;;;;;20.15;8.27;;;;;;;8.71;100.00;98799.00;5070641;28;20097;-74
2023/10/19 05:42:17;;;;;;;20.10;9.18;;;;;;;8.75;100.00;98839.31;5005556;22;20471;-73
2023/10/19 05:44:43;;;;;;;10.93;7.18;;;;;;;8.73;100.00;98836.84;4936664;28;20687;-74
2023/10/19 05:47:08;;;;;;;13.55;8.68;;;;;;;8.63;100.00;98817.78;4948689;28;20050;-73
2023/10/19 05:49:34;;;;;;;21.53;8.07;;;;;;;8.75;100.00;98882.72;4937863;28;20034;-74
2023/10/19 05:51:59;;;;;;;22.58;9.60;;;;;;;8.64;100.00;98868.13;4950866;28;20484;-73
2023/10/19 05:54:25;;;;;;;14.93;7.43;;;;;;;8.67;100.00;98885.53;4933024;28;20089;-74
2023/10/19 05:56:51;;;;;;;11.77;7.63;;;;;;;8.59;100.00;98801.41;4925965;29;20067;-74
2023/10/19 05:59:17;;;;;;;15.65;8.07;;;;;;;8.68;100.00;98822.50;4928830;29;20386;-73
2023/10/19 06:01:46;;;;;;;15.20;8.68;;;;;;;8.62;100.00;98814.31;4994155;28;20533;-73
2023/10/19 06:04:12;;;;;;;15.95;8.43;;;;;;;8.57;100.00;98822.06;4942022;28;20040;-73
2023/10/19 06:06:38;;;;;;;;;;;;;;;8.61;100.00;98811.81;4929374;29;20027;-73
2023/10/19 06:09:08;;;;;;;16.58;8.23;;;;;;;8.72;100.00;98899.06;4927087;28;19949;-73
2023/10/19 06:11:34;;;;;;;17.50;7.88;;;;;;;8.70;100.00;98847.06;4922696;28;20039;-73
2023/10/19 06:13:59;;;;;;;12.82;8.15;;;;;;;8.76;100.00;98937.59;4931640;29;20035;-73
2023/10/19 06:16:25;;;;;;;18.88;7.68;;;;;;;8.74;100.00;98901.56;4930882;29;20047;-73
2023/10/19 06:18:50;;;;;;;18.97;8.77;;;;;;;8.62;100.00;98866.69;4946185;28;20032;-73
2023/10/19 06:21:19;;;;;;;15.55;8.68;;;;;;;8.82;100.00;98947.44;4931168;29;20057;-73
2023/10/19 06:23:45;;;;;;;19.13;8.10;;;;;;;8.72;100.00;98840.53;4930124;29;20032;-73
2023/10/19 06:26:14;;;;;;;15.88;8.77;;;;;;;8.79;100.00;98873.31;4921385;29;20112;-73
2023/10/19 06:28:40;;;;;;;14.98;8.18;;;;;;;8.79;100.00;98883.16;4945892;28;20041;-73
2023/10/19 06:31:06;;;;;;;15.15;7.68;;;;;;;8.83;100.00;98895.06;4943580;28;20438;-73
2023/10/19 06:33:33;;;;;;;24.83;9.47;;;;;;;8.80;100.00;98890.94;4920145;29;20119;-74
2023/10/19 06:35:59;;;;;;;12.95;7.05;;;;;;;8.71;100.00;98876.16;4926520;28;20404;-73
2023/10/19 06:38:25;;;;;;;;;;;;;;;8.72;100.00;98893.75;4930253;28;20475;-73
2023/10/19 06:40:51;;;;;;;16.42;8.27;;;;;;;8.76;100.00;98905.66;4930948;28;19972;-73
2023/10/19 06:43:17;;;;;;;20.60;7.70;;;;;;;8.80;100.00;98916.72;4930916;28;20032;-74
2023/10/19 06:45:44;;;;;;;16.77;8.20;;;;;;;8.85;100.00;98919.63;4930790;29;20063;-74
2023/10/19 06:48:11;;;;;;;18.73;7.38;;;;;;;8.72;100.00;98901.72;4945545;28;20082;-73
2023/10/19 06:50:37;;;;;;;13.10;7.03;;;;;;;8.83;100.00;98946.44;4935202;28;20097;-73
2023/10/19 06:53:05;;;;;;;16.92;7.43;;;;;;;8.86;100.00;98961.19;4936033;28;20047;-74
2023/10/19 06:55:30;;;;;;;13.05;6.78;;;;;;;8.79;100.00;98962.97;4934408;28;20104;-75
2023/10/19 06:57:56;;;;;;;14.00;7.22;;;;;;;8.83;100.00;98975.69;4929036;28;20122;-73
2023/10/19 07:00:26;;;;;;;16.93;7.07;;;;;;;8.88;100.00;98994.56;4932626;28;20031;-74
2023/10/19 07:02:54;;;;;;;12.02;6.65;;;;;;;8.85;100.00;98983.50;4939096;28;20040;-74
2023/10/19 07:05:22;;;;;;;18.33;7.30;;;;;;;8.77;100.00;98941.88;4929771;28;20492;-74
2023/10/19 07:07:49;;;;;;;11.00;6.28;;;;;;;8.86;100.00;98969.97;4931047;28;20031;-74
2023/10/19 07:10:15;;;;;;;12.38;7.22;;;;;;;8.75;100.00;98932.44;4933256;28;20028;-74
2023/10/19 07:12:42;;;;;;;12.27;7.18;;;;;;;8.74;100.00;98971.53;4933342;28;20042;-73
2023/10/19 07:15:09;;;;;;;14.05;6.43;;;;;;;8.78;100.00;99010.06;4921384;28;20537;-74
2023/10/19 07:17:37;;;;;;;17.95;7.65;;;;;;;8.86;100.00;99049.81;4946387;28;20038;-73
2023/10/19 07:20:06;;;;;;;13.85;6.38;;;;;;;8.88;100.00;99053.13;4937363;28;20040;-74
2023/10/19 07:22:32;;;;;;;10.35;5.93;;;;;;;8.96;100.00;99080.59;4934364;28;20023;-74
2023/10/19 07:24:57;;;;;;;12.18;7.25;;;;;;;8.66;100.00;99000.94;4930525;28;20050;-74
2023/10/19 07:27:25;;;;;;;16.20;7.90;;;;;;;8.82;100.00;99061.03;4932410;28;20027;-74
2023/10/19 07:29:50;;;;;;;12.98;6.47;;;;;;;8.87;100.00;99079.91;4906701;28;20416;-74
2023/10/19 07:32:16;;;;;;;13.13;6.97;;;;;;;8.91;100.00;99118.44;4927879;28;20035;-74
2023/10/19 07:34:44;;;;;;;13.90;6.97;;;;;;;8.78;100.00;99081.06;4930127;28;20030;-74
2023/10/19 07:37:14;;;;;;;13.32;6.78;;;;;;;8.87;100.00;99101.19;4933768;28;20123;-75
2023/10/19 07:39:45;;;;;;;11.65;6.22;;;;;;;8.90;100.00;99103.50;4935169;28;20516;-74
2023/10/19 07:42:11;;;;;;;12.63;7.53;;;;;;;8.86;100.00;99049.00;4931864;28;20032;-75
2023/10/19 07:44:36;;;;;;;13.93;6.47;;;;;;;8.70;100.00;99042.09;4948777;28;20022;-74
2023/10/19 07:47:02;;;;;;;12.55;6.00;;;;;;;8.55;100.00;99105.22;4944231;28;20114;-74
2023/10/19 07:49:27;;;;;;;17.20;7.00;;;;;;;8.52;100.00;99235.91;4933797;28;20034;-74
2023/10/19 07:51:52;;;;;;;17.13;7.60;;;;;;;8.53;100.00;99320.84;4932862;28;20086;-74
2023/10/19 07:54:18;;;;;;;12.87;6.67;;;;;;;8.42;100.00;99355.88;4918261;28;20043;-74
2023/10/19 07:56:43;;;;;;;12.27;7.00;;;;;;;8.33;100.00;99426.91;4930033;28;20040;-74
2023/10/19 07:59:09;;;;;;;11.83;6.77;;;;;;;8.29;100.00;99464.66;4930626;28;20039;-74
2023/10/19 08:01:34;;;;;;;14.73;8.73;;;;;;;8.28;100.00;99498.41;4930567;28;20376;-74
2023/10/19 08:04:00;;;;;;;18.03;8.20;;;;;;;8.17;100.00;99496.16;4932568;28;20077;-74
2023/10/19 08:06:26;;;;;;;18.70;9.18;;;;;;;8.13;100.00;99516.16;4929051;28;20056;-74
2023/10/19 08:08:51;;;;;;;14.05;8.07;;;;;;;8.14;100.00;99512.47;4928687;29;20038;-74
2023/10/19 08:11:17;;;;;;;19.87;8.43;;;;;;;8.11;100.00;99491.56;4930918;29;20036;-74
2023/10/19 08:13:42;;;;;;;13.30;8.00;;;;;;;8.19;100.00;99487.03;4944659;28;20043;-74
2023/10/19 08:16:09;;;;;;;12.35;7.85;;;;;;;8.24;100.00;99497.09;4944377;28;20287;-74
2023/10/19 08:18:35;;;;;;;17.45;8.30;;;;;;;8.34;100.00;99513.66;4929766;29;20558;-73
2023/10/19 08:21:01;;;;;;;13.75;7.65;;;;;;;8.35;100.00;99502.00;4929908;29;20106;-73
2023/10/19 08:23:27;;;;;;;13.55;8.02;;;;;;;8.12;100.00;99443.53;4944302;28;20039;-74
2023/10/19 08:25:53;;;;;;;15.68;7.50;;;;;;;8.12;100.00;99462.13;4938626;29;20115;-74
2023/10/19 08:28:20;;;;;;;16.45;8.15;;;;;;;8.26;100.00;99489.78;4927390;29;20125;-74
2023/10/19 08:30:56;;;;;;;16.70;7.22;;;;;;;8.35;100.00;99510.00;4932618;29;20043;-74
2023/10/19 08:33:25;;;;;;;12.85;7.57;;;;;;;8.41;100.00;99527.13;4937323;28;20044;-74
2023/10/19 08:35:54;;;;;;;15.05;7.90;;;;;;;8.31;100.00;99457.34;4929084;28;20046;-74
2023/10/19 08:38:20;;;;;;;14.30;8.18;;;;;;;8.28;100.00;99431.94;4934186;28;20036;-73
2023/10/19 08:40:47;;;;;;;15.23;7.78;;;;;;;8.40;100.00;99469.59;4934306;28;20050;-74
2023/10/19 08:43:18;;;;;;;15.57;7.85;;;;;;;8.40;100.00;99475.75;4936388;28;20519;-74
2023/10/19 08:45:43;;;;;;;15.48;8.00;;;;;;;8.38;100.00;99464.44;4932900;28;20044;-74
2023/10/19 08:48:08;;;;;;;16.50;8.13;;;;;;;8.39;100.00;99450.13;4934298;28;20027;-73
2023/10/19 08:50:34;;;;;;;17.17;8.67;;;;;;;8.33;100.00;99424.25;4932674;28;20506;-74
2023/10/19 08:53:05;;;;;;;13.25;7.72;;;;;;;8.36;100.00;99401.81;4920233;28;20078;-74
2023/10/19 08:55:31;;;;;;;18.40;8.75;;;;;;;8.53;100.00;99437.91;4934111;28;20446;-74
2023/10/19 08:58:00;;;;;;;14.20;7.85;;;;;;;8.61;100.00;99435.16;4935706;28;20036;-75
2023/10/19 09:00:26;;;;;;;16.75;8.80;;;;;;;8.56;100.00;99392.31;4917209;28;20067;-74
2023/10/19 09:02:56;;;;;;;18.65;8.60;;;;;;;8.63;100.00;99385.25;4930756;28;20534;-74
2023/10/19 09:05:22;;;;;;;17.60;8.07;;;;;;;8.60;100.00;99363.50;4927972;28;20039;-75
2023/10/19 09:07:54;;;;;;;14.10;7.68;;;;;;;8.88;100.00;99387.63;4932403;28;20488;-74
2023/10/19 09:10:25;;;;;;;11.45;7.13;;;;;;;8.68;100.00;99339.47;4918527;28;20043;-74
2023/10/19 09:13:08;;;;;;;14.63;7.10;;;;;;;8.66;100.00;99322.84;4935300;28;20488;-74
2023/10/19 09:15:35;;;;;;;14.70;8.20;;;;;;;8.64;100.00;99327.56;4914628;28;20113;-73
2023/10/19 09:18:20;;;;;;;15.38;8.70;;;;;;;8.52;100.00;99297.94;4932719;28;20027;-74
2023/10/19 09:20:55;;;;;;;14.77;8.30;;;;;;;8.60;100.00;99316.44;4940060;28;20403;-74
2023/10/19 09:23:22;;;;;;;14.60;8.57;;;;;;;8.55;100.00;99278.13;4935762;28;20126;-74
2023/10/19 09:25:49;;;;;;;14.93;9.25;;;;;;;8.77;100.00;99329.56;4947144;28;20062;-74
2023/10/19 09:28:14;;;;;;;14.40;8.65;;;;;;;8.66;100.00;99280.28;4930106;28;20118;-73
2023/10/19 09:30:42;;;;;;;17.70;8.83;;;;;;;8.57;100.00;99300.88;4914651;28;20106;-74
2023/10/19 09:33:09;;;;;;;19.15;9.30;;;;;;;8.83;100.00;99369.56;4908026;28;20127;-74
2023/10/19 09:35:37;;;;;;;21.42;9.18;;;;;;;8.92;100.00;99346.34;4927900;28;20620;-73
2023/10/19 09:38:05;;;;;;;15.85;8.77;;;;;;;9.00;100.00;99314.28;4908064;28;20020;-74
2023/10/19 09:40:30;;;;;;;16.63;9.38;;;;;;;8.88;100.00;99242.06;4936975;28;20122;-74
2023/10/19 09:42:58;;;;;;;18.00;8.27;;;;;;;8.75;100.00;99212.66;4931034;28;20031;-75
2023/10/19 09:45:28;;;;;;;17.20;8.52;;;;;;;8.95;100.00;99238.66;4943551;28;20093;-75
2023/10/19 09:47:54;;;;;;;16.30;8.90;;;;;;;8.99;100.00;99189.34;4931659;28;20027;-74
2023/10/19 09:50:20;;;;;;;21.17;9.95;;;;;;;9.23;100.00;99220.09;4931038;28;20074;-75
2023/10/19 09:52:46;;;;;;;18.47;9.23;;;;;;;8.98;100.00;99153.91;4933525;28;20063;-75
2023/10/19 09:55:22;;;;;;;;;;;;;;;9.01;100.00;99142.06;4930674;28;20055;-74
2023/10/19 09:58:02;;;;;;;17.17;9.10;;;;;;;9.08;100.00;99142.94;4947982;28;19922;-74
2023/10/19 10:00:31;;;;;;;14.05;8.95;;;;;;;9.02;100.00;99106.47;4932855;28;20067;-74
2023/10/19 10:02:57;;;;;;;13.65;8.13;;;;;;;9.06;100.00;99092.56;4934316;28;20027;-74
2023/10/19 10:05:37;;;;;;;14.05;8.73;;;;;;;9.07;100.00;99123.50;4930699;28;20082;-75
2023/10/19 10:08:18;;;;;;;17.17;9.07;;;;;;;9.12;100.00;99146.88;4925448;28;20643;-74
2023/10/19 10:10:48;;;;;;;15.27;10.32;;;;;;;9.01;100.00;99126.09;4932851;28;20546;-74
2023/10/19 10:13:32;;;;;;;18.25;10.02;;;;;;;9.03;100.00;99156.81;4931452;28;20145;-74
2023/10/19 10:15:58;;;;;;;19.13;9.20;;;;;;;9.16;100.00;99195.25;4925865;28;20047;-75
2023/10/19 10:18:24;;;;;;;;;;;;;;;9.24;100.00;99174.63;4931162;28;20031;-74
2023/10/19 10:21:12;;;;;;;14.68;9.20;;;;;;;9.11;100.00;99142.59;4932402;28;19914;-74
2023/10/19 10:23:42;;;;;;;19.67;9.25;;;;;;;9.02;100.00;99109.13;4935095;28;20031;-73
2023/10/19 10:26:08;;;;;;;17.20;7.70;;;;;;;9.04;100.00;99107.09;4930978;28;20067;-73
2023/10/19 10:28:35;;;;;;;13.05;9.02;;;;;;;8.96;100.00;99078.75;4932196;28;20039;-74
2023/10/19 10:31:21;;;;;;;15.25;8.80;;;;;;;8.99;100.00;99098.84;4931151;28;20372;-74
2023/10/19 10:33:48;;;;;;;16.40;7.75;;;;;;;8.97;100.00;99088.41;4914614;28;20093;-74
2023/10/19 10:36:15;;;;;;;21.58;8.05;;;;;;;9.01;100.00;99118.09;4930290;28;20031;-74
2023/10/19 10:38:41;;;;;;;17.50;9.70;;;;;;;8.99;100.00;99173.38;4930540;28;20043;-74
2023/10/19 10:41:10;;;;;;;17.02;9.95;;;;;;;8.95;100.00;99223.53;4931083;28;20036;-73
2023/10/19 10:43:52;;;;;;;18.95;9.93;;;;;;;8.85;100.00;99237.13;4934108;28;20039;-74
2023/10/19 10:46:19;;;;;;;18.13;9.90;;;;;;;8.82;100.00;99265.94;4932329;28;20032;-73
2023/10/19 10:48:44;;;;;;;15.65;9.45;;;;;;;8.80;100.00;99322.03;4929793;28;20138;-75
2023/10/19 10:51:22;;;;;;;12.50;8.93;;;;;;;8.73;100.00;99315.78;4930244;28;20134;-74
2023/10/19 10:53:49;;;;;;;15.75;9.30;;;;;;;8.88;100.00;99361.84;4930741;28;20530;-74
2023/10/19 10:56:16;;;;;;;23.60;10.52;;;;;;;8.82;100.00;99389.19;4930256;28;20031;-74
2023/10/19 10:58:42;;;;;;;14.60;9.05;;;;;;;8.73;100.00;99371.66;4931748;28;20039;-73
2023/10/19 11:01:07;;;;;;;16.63;9.47;;;;;;;8.98;100.00;99420.13;4930203;28;20042;-74
2023/10/19 11:03:33;;;;;;;16.37;9.17;;;;;;;8.84;100.00;99386.34;4931629;28;20043;-73
2023/10/19 11:06:09;;;;;;;18.65;8.98;;;;;;;9.06;100.00;99425.34;4933191;28;20039;-74
2023/10/19 11:08:36;;;;;;;19.35;9.85;;;;;;;9.01;100.00;99409.13;4915516;28;20058;-73
2023/10/19 11:11:11;;;;;;;19.02;8.95;;;;;;;8.93;100.00;99373.78;4933030;28;20027;-73
2023/10/19 11:13:38;;;;;;;18.10;10.50;;;;;;;8.73;100.00;99354.88;4934025;28;20456;-73
2023/10/19 11:16:05;;;;;;;15.45;9.48;;;;;;;8.91;100.00;99423.72;4919435;28;20428;-74
2023/10/19 11:18:35;;;;;;;21.85;10.40;;;;;;;8.60;100.00;99379.47;4931278;28;20100;-73
2023/10/19 11:21:06;;;;;;;16.33;10.68;;;;;;;8.64;100.00;99418.03;4919089;28;20028;-72
2023/10/19 11:23:35;;;;;;;17.52;10.60;;;;;;;8.72;100.00;99459.66;4916638;28;20509;-74
2023/10/19 11:26:02;;;;;;;18.67;9.85;;;;;;;8.57;100.00;99464.94;4920879;28;20038;-73
2023/10/19 11:28:28;;;;;;;17.45;10.18;;;;;;;8.62;100.00;99446.63;4932367;28;20030;-73
2023/10/19 11:30:54;;;;;;;;;;;;;;;8.49;100.00;99441.91;4931526;28;20121;-73
2023/10/19 11:33:24;;;;;;;18.08;10.57;;;;;;;8.72;100.00;99497.75;4931200;28;20378;-73
2023/10/19 11:35:50;;;;;;;14.57;9.48;;;;;;;8.68;100.00;99508.94;4930860;28;20035;-73
2023/10/19 11:38:16;;;;;;;16.48;10.38;;;;;;;8.49;100.00;99462.38;4930056;28;20031;-73
2023/10/19 11:40:41;;;;;;;;;;;;;;;8.43;100.00;99448.81;4928328;28;20040;-73
2023/10/19 11:43:06;;;;;;;17.15;10.50;;;;;;;8.52;100.00;99459.34;4972752;22;20493;-87
2023/10/19 11:45:32;;;;;;;21.30;10.10;;;;;;;8.54;100.00;99460.00;4938971;28;20040;-87
2023/10/19 11:47:57;;;;;;;20.43;10.13;;;;;;;8.51;100.00;99455.88;4945996;28;20114;-86
2023/10/19 11:50:24;;;;;;;20.07;10.33;;;;;;;8.68;100.00;99461.84;4947005;29;20039;-86
2023/10/19 11:52:49;;;;;;;15.77;10.18;;;;;;;8.28;100.00;99402.69;4961893;28;20287;-87